Time,TemperatureF,DewpointF,PressureIn,WindDirection,WindDirectionDegrees,WindSpeedMPH,WindSpeedGustMPH,Humidity,HourlyPrecipIn,Conditions,Clouds,dailyrainin,SoftwareType,DateUTC
2013-06-03 00:03:00,71.4,44.5,29.81,SSW,202,3.1,-999.0,38,-99.99,,,0.00,Acu-Link.com,2013-06-03 06:03:00,
2013-06-03 00:18:00,70.0,44.5,29.82,ESE,112,2.2,-999.0,40,-99.99,,,0.00,Acu-Link.com,2013-06-03 06:18:00,
2013-06-03 00:34:00,70.2,44.7,29.82,SSW,202,0.0,-999.0,40,-99.99,,,0.00,Acu-Link.com,2013-06-03 06:34:00,
2013-06-03 00:49:00,69.6,44.9,29.82,South,180,2.2,-999.0,41,-99.99,,,0.00,Acu-Link.com,2013-06-03 06:49:00,
2013-06-03 01:04:00,69.4,44.7,29.82,SW,225,0.0,-999.0,41,-99.99,,,0.00,Acu-Link.com,2013-06-03 07:04:00,
2013-06-03 01:19:00,68.4,44.4,29.82,SSW,202,0.0,-999.0,42,-99.99,,,0.00,Acu-Link.com,2013-06-03 07:19:00,
2013-06-03 01:35:00,68.0,44.7,29.82,South,180,2.2,-999.0,43,-99.99,,,0.00,Acu-Link.com,2013-06-03 07:35:00,
2013-06-03 01:50:00,67.3,44.6,29.83,SSW,202,1.6,-999.0,44,-99.99,,,0.00,Acu-Link.com,2013-06-03 07:50:00,
2013-06-03 02:05:00,66.9,44.9,29.83,ENE,67,3.8,-999.0,45,-99.99,,,0.00,Acu-Link.com,2013-06-03 08:05:00,
2013-06-03 02:22:00,66.9,44.9,29.83,ENE,67,3.8,-999.0,45,-99.99,,,0.00,Acu-Link.com,2013-06-03 08:22:00,
2013-06-03 02:37:00,66.9,44.9,29.83,SSW,202,0.0,-999.0,45,-99.99,,,0.00,Acu-Link.com,2013-06-03 08:37:00,
2013-06-03 02:52:00,66.0,44.6,29.82,NW,315,0.0,-999.0,46,-99.99,,,0.00,Acu-Link.com,2013-06-03 08:52:00,
2013-06-03 03:07:00,64.8,44.6,29.83,NE,45,1.1,-999.0,48,-99.99,,,0.00,Acu-Link.com,2013-06-03 09:07:00,
2013-06-03 03:22:00,64.0,44.5,29.84,NNE,22,0.0,-999.0,49,-99.99,,,0.00,Acu-Link.com,2013-06-03 09:22:00,
2013-06-03 03:37:00,64.8,43.5,29.83,NNW,337,3.8,-999.0,46,-99.99,,,0.00,Acu-Link.com,2013-06-03 09:37:00,
2013-06-03 03:52:00,64.6,43.9,29.84,WSW,247,0.0,-999.0,47,-99.99,,,0.00,Acu-Link.com,2013-06-03 09:52:00,
2013-06-03 04:07:00,63.5,44.0,29.84,NNE,22,0.0,-999.0,49,-99.99,,,0.00,Acu-Link.com,2013-06-03 10:07:00,
2013-06-03 04:22:00,63.5,45.6,29.84,SSE,157,1.6,-999.0,52,-99.99,,,0.00,Acu-Link.com,2013-06-03 10:22:00,
2013-06-03 04:38:00,63.7,46.2,29.84,East,90,1.6,-999.0,53,-99.99,,,0.00,Acu-Link.com,2013-06-03 10:38:00,
2013-06-03 04:53:00,64.0,46.6,29.84,SSW,202,0.0,-999.0,53,-99.99,,,0.00,Acu-Link.com,2013-06-03 10:53:00,
2013-06-03 05:08:00,63.7,47.2,29.85,SSE,157,0.0,-999.0,55,-99.99,,,0.00,Acu-Link.com,2013-06-03 11:08:00,
2013-06-03 05:23:00,63.1,47.7,29.85,SSE,157,3.8,-999.0,57,-99.99,,,0.00,Acu-Link.com,2013-06-03 11:23:00,
2013-06-03 05:39:00,63.1,48.1,29.85,South,180,2.2,-999.0,58,-99.99,,,0.00,Acu-Link.com,2013-06-03 11:39:00,
2013-06-03 05:54:00,62.6,47.6,29.86,SSE,157,1.1,-999.0,58,-99.99,,,0.00,Acu-Link.com,2013-06-03 11:54:00,
2013-06-03 06:09:00,62.2,48.2,29.86,South,180,2.2,-999.0,60,-99.99,,,0.00,Acu-Link.com,2013-06-03 12:09:00,
2013-06-03 06:24:00,62.4,48.3,29.86,South,180,1.6,-999.0,60,-99.99,,,0.00,Acu-Link.com,2013-06-03 12:24:00,
2013-06-03 06:39:00,64.8,48.7,29.87,SSE,157,2.7,-999.0,56,-99.99,,,0.00,Acu-Link.com,2013-06-03 12:39:00,
2013-06-03 06:55:00,66.4,48.7,29.88,SSW,202,2.2,-999.0,53,-99.99,,,0.00,Acu-Link.com,2013-06-03 12:55:00,
2013-06-03 07:10:00,68.0,49.2,29.88,SSW,202,3.1,-999.0,51,-99.99,,,0.00,Acu-Link.com,2013-06-03 13:10:00,
2013-06-03 07:25:00,70.3,49.1,29.88,South,180,3.1,-999.0,47,-99.99,,,0.00,Acu-Link.com,2013-06-03 13:25:00,
2013-06-03 07:40:00,70.9,49.1,29.88,SSE,157,4.3,-999.0,46,-99.99,,,0.00,Acu-Link.com,2013-06-03 13:40:00,
2013-06-03 07:55:00,71.1,49.2,29.89,South,180,4.3,-999.0,46,-99.99,,,0.00,Acu-Link.com,2013-06-03 13:55:00,
2013-06-03 08:11:00,71.6,49.1,29.89,SW,225,2.2,-999.0,45,-99.99,,,0.00,Acu-Link.com,2013-06-03 14:11:00,
2013-06-03 08:41:00,73.2,49.4,29.89,SSE,157,6.3,-999.0,43,-99.99,,,0.00,Acu-Link.com,2013-06-03 14:41:00,
2013-06-03 08:56:00,75.0,50.4,29.89,SSE,157,2.2,-999.0,42,-99.99,,,0.00,Acu-Link.com,2013-06-03 14:56:00,
2013-06-03 09:11:00,74.3,49.7,29.89,South,180,5.1,-999.0,42,-99.99,,,0.00,Acu-Link.com,2013-06-03 15:11:00,
2013-06-03 09:27:00,76.6,50.5,29.89,ESE,112,3.1,-999.0,40,-99.99,,,0.00,Acu-Link.com,2013-06-03 15:27:00,
2013-06-03 09:42:00,76.1,50.7,29.89,SSW,202,4.3,-999.0,41,-99.99,,,0.00,Acu-Link.com,2013-06-03 15:42:00,
2013-06-03 09:57:00,77.7,51.5,29.89,South,180,6.7,-999.0,40,-99.99,,,0.00,Acu-Link.com,2013-06-03 15:57:00,
2013-06-03 10:12:00,78.1,51.1,29.88,WSW,247,3.1,-999.0,39,-99.99,,,0.00,Acu-Link.com,2013-06-03 16:12:00,
2013-06-03 10:28:00,79.3,51.5,29.88,SSE,157,6.7,-999.0,38,-99.99,,,0.00,Acu-Link.com,2013-06-03 16:28:00,
2013-06-03 10:43:00,79.9,51.3,29.87,South,180,5.8,-999.0,37,-99.99,,,0.00,Acu-Link.com,2013-06-03 16:43:00,
2013-06-03 10:58:00,80.2,50.8,29.87,SSW,202,4.7,-999.0,36,-99.99,,,0.00,Acu-Link.com,2013-06-03 16:58:00,
2013-06-03 11:13:00,80.4,51.0,29.86,SW,225,1.1,-999.0,36,-99.99,,,0.00,Acu-Link.com,2013-06-03 17:13:00,
2013-06-03 11:28:00,82.4,51.2,29.86,South,180,4.7,-999.0,34,-99.99,,,0.00,Acu-Link.com,2013-06-03 17:28:00,
2013-06-03 11:44:00,84.7,49.8,29.85,South,180,6.7,-999.0,30,-99.99,,,0.00,Acu-Link.com,2013-06-03 17:44:00,
2013-06-03 11:59:00,84.6,49.7,29.85,South,180,5.8,-999.0,30,-99.99,,,0.00,Acu-Link.com,2013-06-03 17:59:00,
2013-06-03 12:14:00,84.7,48.9,29.84,ESE,112,4.7,-999.0,29,-99.99,,,0.00,Acu-Link.com,2013-06-03 18:14:00,
2013-06-03 12:29:00,86.0,48.1,29.83,SSE,157,5.8,-999.0,27,-99.99,,,0.00,Acu-Link.com,2013-06-03 18:29:00,
2013-06-03 12:44:00,88.5,47.1,29.82,SSE,157,6.7,-999.0,24,-99.99,,,0.00,Acu-Link.com,2013-06-03 18:44:00,
2013-06-03 13:00:00,89.6,44.5,29.81,SSW,202,3.8,-999.0,21,-99.99,,,0.00,Acu-Link.com,2013-06-03 19:00:00,
2013-06-03 13:15:00,90.3,45.0,29.80,SSW,202,6.3,-999.0,21,-99.99,,,0.00,Acu-Link.com,2013-06-03 19:15:00,
2013-06-03 13:30:00,88.5,42.3,29.79,West,270,3.8,-999.0,20,-99.99,,,0.00,Acu-Link.com,2013-06-03 19:30:00,
2013-06-03 13:45:00,91.2,43.2,29.78,ESE,112,7.8,-999.0,19,-99.99,,,0.00,Acu-Link.com,2013-06-03 19:45:00,
2013-06-03 14:00:00,91.9,42.3,29.77,North,0,6.3,-999.0,18,-99.99,,,0.00,Acu-Link.com,2013-06-03 20:00:00,
2013-06-03 14:16:00,92.1,41.0,29.76,North,0,3.1,-999.0,17,-99.99,,,0.00,Acu-Link.com,2013-06-03 20:16:00,
2013-06-03 14:31:00,93.2,40.3,29.75,ESE,112,3.1,-999.0,16,-99.99,,,0.00,Acu-Link.com,2013-06-03 20:31:00,
2013-06-03 14:46:00,93.2,40.3,29.74,ENE,67,4.3,-999.0,16,-99.99,,,0.00,Acu-Link.com,2013-06-03 20:46:00,
2013-06-03 15:01:00,91.4,38.9,29.74,South,180,5.1,-999.0,16,-99.99,,,0.00,Acu-Link.com,2013-06-03 21:01:00,
2013-06-03 15:17:00,92.3,41.1,29.73,ESE,112,3.8,-999.0,17,-99.99,,,0.00,Acu-Link.com,2013-06-03 21:17:00,
2013-06-03 15:32:00,90.1,37.9,29.73,ENE,67,2.2,-999.0,16,-99.99,,,0.00,Acu-Link.com,2013-06-03 21:32:00,
2013-06-03 15:47:00,93.2,40.3,29.72,SSW,202,3.8,-999.0,16,-99.99,,,0.00,Acu-Link.com,2013-06-03 21:47:00,
2013-06-03 16:02:00,92.3,39.6,29.71,South,180,8.3,-999.0,16,-99.99,,,0.00,Acu-Link.com,2013-06-03 22:02:00,
2013-06-03 16:17:00,91.2,40.3,29.70,SSW,202,7.8,-999.0,17,-99.99,,,0.00,Acu-Link.com,2013-06-03 22:17:00,
2013-06-03 16:33:00,91.6,39.0,29.70,WSW,247,2.7,-999.0,16,-99.99,,,0.00,Acu-Link.com,2013-06-03 22:33:00,
2013-06-03 16:48:00,92.3,37.9,29.70,South,180,7.8,-999.0,15,-99.99,,,0.00,Acu-Link.com,2013-06-03 22:48:00,
2013-06-03 17:03:00,93.6,38.9,29.69,SSW,202,7.8,-999.0,15,-99.99,,,0.00,Acu-Link.com,2013-06-03 23:03:00,
2013-06-03 17:18:00,94.1,35.7,29.68,SSW,202,6.3,-999.0,13,-99.99,,,0.00,Acu-Link.com,2013-06-03 23:18:00,
2013-06-03 17:33:00,97.0,35.9,29.67,South,180,2.7,-999.0,12,-99.99,,,0.00,Acu-Link.com,2013-06-03 23:33:00,
2013-06-03 17:49:00,94.5,36.0,29.67,SSE,157,4.3,-999.0,13,-99.99,,,0.00,Acu-Link.com,2013-06-03 23:49:00,
2013-06-03 18:04:00,96.8,22.6,29.67,WNW,292,8.3,-999.0,7,-99.99,,,0.00,Acu-Link.com,2013-06-04 00:04:00,
2013-06-03 18:19:00,96.6,22.5,29.67,West,270,8.9,-999.0,7,-99.99,,,0.00,Acu-Link.com,2013-06-04 00:19:00,
2013-06-03 18:34:00,93.9,20.5,29.67,West,270,9.8,-999.0,7,-99.99,,,0.00,Acu-Link.com,2013-06-04 00:34:00,
2013-06-03 18:50:00,93.4,20.1,29.68,WSW,247,17.0,-999.0,7,-99.99,,,0.00,Acu-Link.com,2013-06-04 00:50:00,
2013-06-03 19:05:00,92.7,19.6,29.69,West,270,11.4,-999.0,7,-99.99,,,0.00,Acu-Link.com,2013-06-04 01:05:00,
2013-06-03 19:20:00,91.2,18.6,29.69,West,270,12.5,-999.0,7,-99.99,,,0.00,Acu-Link.com,2013-06-04 01:20:00,
2013-06-03 19:35:00,90.7,18.2,29.70,West,270,8.9,-999.0,7,-99.99,,,0.00,Acu-Link.com,2013-06-04 01:35:00,
2013-06-03 19:50:00,89.4,17.3,29.71,West,270,8.9,-999.0,7,-99.99,,,0.00,Acu-Link.com,2013-06-04 01:50:00,
2013-06-03 20:05:00,88.3,16.5,29.72,West,270,9.8,-999.0,7,-99.99,,,0.00,Acu-Link.com,2013-06-04 02:05:00,
2013-06-03 20:21:00,86.9,15.4,29.72,West,270,6.3,-999.0,7,-99.99,,,0.00,Acu-Link.com,2013-06-04 02:21:00,
2013-06-03 20:36:00,85.8,14.7,29.72,NW,315,9.4,-999.0,7,-99.99,,,0.00,Acu-Link.com,2013-06-04 02:36:00,
2013-06-03 20:51:00,84.6,13.7,29.73,West,270,6.3,-999.0,7,-99.99,,,0.00,Acu-Link.com,2013-06-04 02:51:00,
2013-06-03 21:06:00,83.8,13.2,29.73,West,270,8.3,-999.0,7,-99.99,,,0.00,Acu-Link.com,2013-06-04 03:06:00,
2013-06-03 21:21:00,83.5,13.0,29.73,West,270,7.8,-999.0,7,-99.99,,,0.00,Acu-Link.com,2013-06-04 03:21:00,
2013-06-03 21:37:00,82.8,15.5,29.74,WNW,292,11.4,-999.0,8,-99.99,,,0.00,Acu-Link.com,2013-06-04 03:37:00,
2013-06-03 21:52:00,82.6,15.3,29.75,West,270,6.7,-999.0,8,-99.99,,,0.00,Acu-Link.com,2013-06-04 03:52:00,
2013-06-03 22:07:00,81.7,14.7,29.76,WSW,247,6.3,-999.0,8,-99.99,,,0.00,Acu-Link.com,2013-06-04 04:07:00,
2013-06-03 22:22:00,81.3,14.4,29.75,West,270,6.3,-999.0,8,-99.99,,,0.00,Acu-Link.com,2013-06-04 04:22:00,
2013-06-03 22:38:00,80.8,14.0,29.75,WSW,247,7.4,-999.0,8,-99.99,,,0.00,Acu-Link.com,2013-06-04 04:38:00,
2013-06-03 22:53:00,80.4,13.7,29.76,West,270,7.4,-999.0,8,-99.99,,,0.00,Acu-Link.com,2013-06-04 04:53:00,
2013-06-03 23:08:00,78.8,12.5,29.76,West,270,8.9,-999.0,8,-99.99,,,0.00,Acu-Link.com,2013-06-04 05:08:00,
2013-06-03 23:23:00,79.2,15.5,29.77,West,270,8.3,-999.0,9,-99.99,,,0.00,Acu-Link.com,2013-06-04 05:23:00,
2013-06-03 23:38:00,79.0,15.4,29.77,West,270,9.8,-999.0,9,-99.99,,,0.00,Acu-Link.com,2013-06-04 05:38:00,
2013-06-03 23:54:00,78.6,15.1,29.78,WSW,247,11.4,-999.0,9,-99.99,,,0.00,Acu-Link.com,2013-06-04 05:54:00,